Time;durP1;ratioP1;P1;durP2;ratioP2;P2;SDS_P1;SDS_P2;PMS_P1;PMS_P2;Temp;Humidity;BMP_temperature;BMP_pressure;BME280_temperature;BME280_humidity;BME280_pressure;Samples;Min_cycle;Max_cycle;Signal;HPM_P1;HPM_P2
2021/01/15 00:00:24;;;;;;;5.53;4.18;;;;;;;-144.78;100.00;59851.00;5015800;28;20206;-71
2021/01/15 00:02:50;;;;;;;5.53;3.65;;;;;;;-144.78;100.00;59851.00;5016178;28;20199;-70
2021/01/15 00:05:17;;;;;;;6.65;4.00;;;;;;;-144.78;100.00;59851.00;5016108;28;20229;-71
2021/01/15 00:07:44;;;;;;;3.72;3.20;;;;;;;-144.78;100.00;59851.00;5015632;28;20364;-69
2021/01/15 00:10:12;;;;;;;9.68;4.55;;;;;;;-144.78;100.00;59851.00;5015899;28;20385;-71
2021/01/15 00:12:39;;;;;;;4.25;3.90;;;;;;;-144.78;100.00;59851.00;5035777;28;20658;-71
2021/01/15 00:15:07;;;;;;;4.00;2.88;;;;;;;-144.78;100.00;59851.00;5035339;28;20210;-71
2021/01/15 00:17:34;;;;;;;7.25;3.78;;;;;;;-144.78;100.00;59851.00;5035599;28;20198;-71
2021/01/15 00:20:00;;;;;;;3.95;3.60;;;;;;;-144.78;100.00;59851.00;5035224;28;20578;-71
2021/01/15 00:22:27;;;;;;;7.50;4.05;;;;;;;-144.78;100.00;59851.00;5035619;28;20244;-71
2021/01/15 00:24:53;;;;;;;6.60;3.53;;;;;;;-144.78;100.00;59851.00;5035673;28;20210;-70
2021/01/15 00:27:19;;;;;;;5.00;3.25;;;;;;;-144.78;100.00;59851.00;5034909;28;20210;-72
2021/01/15 00:29:47;;;;;;;5.03;4.07;;;;;;;-144.78;100.00;59851.00;5033193;28;20238;-71
2021/01/15 00:32:13;;;;;;;4.38;3.13;;;;;;;-144.78;100.00;59851.00;5035398;28;20210;-70
2021/01/15 00:34:40;;;;;;;7.30;4.13;;;;;;;-144.78;100.00;59851.00;5035454;28;20209;-70
2021/01/15 00:37:07;;;;;;;6.15;4.15;;;;;;;-144.78;100.00;59851.00;5048201;28;20590;-71
2021/01/15 00:39:33;;;;;;;4.65;3.85;;;;;;;-144.78;100.00;59851.00;5051759;28;20198;-70
2021/01/15 00:41:59;;;;;;;7.43;3.80;;;;;;;-144.78;100.00;59851.00;5035110;28;20198;-68
2021/01/15 00:44:26;;;;;;;5.28;4.47;;;;;;;-144.78;100.00;59851.00;5035148;28;20209;-69
2021/01/15 00:46:54;;;;;;;3.65;2.60;;;;;;;-144.78;100.00;59851.00;5035004;28;20215;-68
2021/01/15 00:49:21;;;;;;;5.63;3.72;;;;;;;-144.78;100.00;59851.00;5035078;28;20210;-69
2021/01/15 00:51:49;;;;;;;3.60;3.25;;;;;;;-144.78;100.00;59851.00;5035418;28;20606;-71
2021/01/15 00:54:16;;;;;;;4.43;3.55;;;;;;;-144.78;100.00;59851.00;5035322;28;20648;-69
2021/01/15 00:56:43;;;;;;;4.07;3.38;;;;;;;-144.78;100.00;59851.00;5035506;28;20205;-70
2021/01/15 00:59:09;;;;;;;7.40;2.97;;;;;;;-144.78;100.00;59851.00;5023668;28;20203;-69
2021/01/15 01:01:37;;;;;;;5.15;2.45;;;;;;;-144.78;100.00;59851.00;5014836;28;20212;-70
2021/01/15 01:04:05;;;;;;;4.70;3.28;;;;;;;-144.78;100.00;59851.00;5015238;28;20238;-70
2021/01/15 01:06:32;;;;;;;2.67;2.47;;;;;;;-144.78;100.00;59851.00;5015454;28;20537;-70
2021/01/15 01:09:02;;;;;;;3.85;3.20;;;;;;;-144.78;100.00;59851.00;5014887;28;20238;-70
2021/01/15 01:11:30;;;;;;;2.60;1.95;;;;;;;-144.78;100.00;59851.00;5014849;28;20190;-73
2021/01/15 01:13:58;;;;;;;3.55;3.17;;;;;;;-144.78;100.00;59851.00;5014489;28;20210;-70
2021/01/15 01:16:25;;;;;;;2.28;2.00;;;;;;;-144.78;100.00;59851.00;5014752;28;20261;-70
2021/01/15 01:18:52;;;;;;;3.90;2.78;;;;;;;-144.78;100.00;59851.00;5014844;28;20302;-71
2021/01/15 01:21:20;;;;;;;4.68;3.17;;;;;;;-144.78;100.00;59851.00;5015082;28;20202;-68
2021/01/15 01:23:47;;;;;;;3.20;2.90;;;;;;;-144.78;100.00;59851.00;5014753;28;20260;-70
2021/01/15 01:26:14;;;;;;;8.02;4.03;;;;;;;-144.78;100.00;59851.00;5016759;28;20210;-70
2021/01/15 01:28:42;;;;;;;2.13;2.00;;;;;;;-144.78;100.00;59851.00;5034092;28;20225;-70
2021/01/15 01:31:09;;;;;;;2.42;1.85;;;;;;;-144.78;100.00;59851.00;5033796;28;20210;-70
2021/01/15 01:33:36;;;;;;;4.57;2.90;;;;;;;-144.78;100.00;59851.00;5032699;28;20568;-69
2021/01/15 01:36:02;;;;;;;4.78;2.60;;;;;;;-144.78;100.00;59851.00;5034241;28;20305;-70
2021/01/15 01:38:30;;;;;;;2.03;1.92;;;;;;;-144.78;100.00;59851.00;5034487;28;20727;-70
2021/01/15 01:40:56;;;;;;;5.47;1.83;;;;;;;-144.78;100.00;59851.00;5034692;28;20241;-70
2021/01/15 01:43:23;;;;;;;3.85;3.25;;;;;;;-144.78;100.00;59851.00;5034153;28;20554;-70
2021/01/15 01:45:49;;;;;;;3.17;2.72;;;;;;;-144.78;100.00;59851.00;5033992;28;20292;-69
2021/01/15 01:48:17;;;;;;;2.70;2.33;;;;;;;-144.78;100.00;59851.00;5034356;28;20301;-69
2021/01/15 01:50:46;;;;;;;14.23;3.03;;;;;;;-144.78;100.00;59851.00;5034249;28;20212;-70
2021/01/15 01:53:14;;;;;;;1.95;1.75;;;;;;;-144.78;100.00;59851.00;5033970;28;20202;-69
2021/01/15 01:55:43;;;;;;;3.97;2.22;;;;;;;-144.78;100.00;59851.00;5033790;28;20226;-71
2021/01/15 01:58:11;;;;;;;3.60;2.38;;;;;;;-144.78;100.00;59851.00;5034359;28;20703;-70
2021/01/15 02:00:40;;;;;;;2.60;2.40;;;;;;;-144.78;100.00;59851.00;5031996;28;20214;-69
2021/01/15 02:03:07;;;;;;;2.33;2.15;;;;;;;-144.78;100.00;59851.00;5033868;28;20194;-71
2021/01/15 02:05:33;;;;;;;4.70;2.67;;;;;;;-144.78;100.00;59851.00;5033906;28;20213;-69
2021/01/15 02:07:59;;;;;;;5.18;2.30;;;;;;;-144.78;100.00;59851.00;5033846;28;20213;-71
2021/01/15 02:10:32;;;;;;;5.78;2.45;;;;;;;-144.78;100.00;59851.00;5031175;28;20317;-70
2021/01/15 02:13:10;;;;;;;3.90;2.80;;;;;;;-144.78;100.00;59851.00;5013154;28;20187;-71
2021/01/15 02:15:41;;;;;;;2.20;1.63;;;;;;;-144.78;100.00;59851.00;5013709;28;20243;-68
2021/01/15 02:18:10;;;;;;;5.65;2.25;;;;;;;-144.78;100.00;59851.00;5013724;28;20211;-70
2021/01/15 02:21:20;;;;;;;1.73;1.30;;;;;;;-144.78;100.00;59851.00;5013934;28;20206;-70
2021/01/15 02:23:47;;;;;;;6.22;3.03;;;;;;;-144.78;100.00;59851.00;4981810;28;20264;-70
2021/01/15 02:26:58;;;;;;;4.15;2.40;;;;;;;-144.78;100.00;59851.00;5013863;28;20202;-70
2021/01/15 02:29:30;;;;;;;3.95;2.65;;;;;;;-144.78;100.00;59851.00;5013293;28;20242;-69
2021/01/15 02:32:26;;;;;;;2.40;2.20;;;;;;;-144.78;100.00;59851.00;5032914;28;20269;-70
2021/01/15 02:35:23;;;;;;;2.40;1.50;;;;;;;-144.78;100.00;59851.00;5033624;28;20212;-70
2021/01/15 02:38:08;;;;;;;2.00;1.80;;;;;;;-144.78;100.00;59851.00;5032807;28;20229;-69
2021/01/15 02:40:39;;;;;;;2.45;1.67;;;;;;;-144.78;100.00;59851.00;5033432;28;20244;-69
2021/01/15 02:43:07;;;;;;;2.95;2.15;;;;;;;-144.78;100.00;59851.00;5033195;28;20566;-69
2021/01/15 02:45:34;;;;;;;2.38;1.77;;;;;;;-144.78;100.00;59851.00;5032983;28;20210;-70
2021/01/15 02:48:04;;;;;;;3.17;2.38;;;;;;;-144.78;100.00;59851.00;5032849;28;20221;-68
2021/01/15 02:50:31;;;;;;;2.65;1.95;;;;;;;-144.78;100.00;59851.00;5032203;28;20201;-70
2021/01/15 02:52:59;;;;;;;2.22;2.10;;;;;;;-144.78;100.00;59851.00;5033295;28;20213;-70
2021/01/15 02:55:25;;;;;;;2.30;1.70;;;;;;;-144.78;100.00;59851.00;5032636;28;20223;-69
2021/01/15 02:57:52;;;;;;;2.72;1.35;;;;;;;-144.78;100.00;59851.00;5033193;28;20534;-69
2021/01/15 03:00:21;;;;;;;2.35;2.15;;;;;;;-144.78;100.00;59851.00;5032734;28;20209;-69
2021/01/15 03:02:55;;;;;;;3.40;1.52;;;;;;;-144.78;100.00;59851.00;5033373;28;20547;-69
2021/01/15 03:05:22;;;;;;;4.07;2.72;;;;;;;-144.78;100.00;59851.00;5032803;28;20194;-69
2021/01/15 03:07:51;;;;;;;1.95;1.77;;;;;;;-144.78;100.00;59851.00;5033010;28;20249;-69
2021/01/15 03:10:22;;;;;;;3.45;2.00;;;;;;;-144.78;100.00;59851.00;5032775;28;20217;-69
2021/01/15 03:12:49;;;;;;;1.63;1.52;;;;;;;-144.78;100.00;59851.00;5032568;28;20228;-69
2021/01/15 03:15:18;;;;;;;2.15;1.70;;;;;;;-144.78;100.00;59851.00;5032978;28;20365;-70
2021/01/15 03:17:47;;;;;;;1.35;1.20;;;;;;;-144.78;100.00;59851.00;5033019;28;20198;-69
2021/01/15 03:20:15;;;;;;;1.40;1.30;;;;;;;-144.78;100.00;59851.00;5032426;28;20232;-69
2021/01/15 03:22:44;;;;;;;3.15;1.60;;;;;;;-144.78;100.00;59851.00;5032637;28;20296;-69
2021/01/15 03:25:13;;;;;;;2.55;2.45;;;;;;;-144.78;100.00;59851.00;5038557;28;20205;-69
2021/01/15 03:27:45;;;;;;;1.95;1.17;;;;;;;-144.78;100.00;59851.00;5039331;28;20216;-69
2021/01/15 03:30:14;;;;;;;1.73;1.40;;;;;;;-144.78;100.00;59851.00;5039864;28;20205;-70
2021/01/15 03:32:41;;;;;;;3.22;2.00;;;;;;;-144.78;100.00;59851.00;5039585;28;20190;-70
2021/01/15 03:35:08;;;;;;;2.00;1.70;;;;;;;-144.78;100.00;59851.00;5039325;28;20236;-69
2021/01/15 03:37:35;;;;;;;1.30;1.20;;;;;;;-144.78;100.00;59851.00;5039205;28;20221;-68
2021/01/15 03:40:01;;;;;;;3.72;2.38;;;;;;;-144.78;100.00;59851.00;5039193;28;20195;-69
2021/01/15 03:42:28;;;;;;;2.40;1.90;;;;;;;-144.78;100.00;59851.00;5039326;28;20212;-70
2021/01/15 03:44:55;;;;;;;6.28;2.45;;;;;;;-144.78;100.00;59851.00;5038933;28;20241;-70
2021/01/15 03:47:21;;;;;;;2.58;2.38;;;;;;;-144.78;100.00;59851.00;5039351;28;20209;-68
2021/01/15 03:49:47;;;;;;;1.80;1.65;;;;;;;-144.78;100.00;59851.00;5038986;28;20329;-70
2021/01/15 03:52:13;;;;;;;2.15;1.80;;;;;;;-144.78;100.00;59851.00;5035813;28;20244;-69
2021/01/15 03:54:40;;;;;;;1.40;1.30;;;;;;;-144.78;100.00;59851.00;5039330;28;20190;-70
2021/01/15 03:57:06;;;;;;;1.20;1.10;;;;;;;-144.78;100.00;59851.00;5039026;28;20212;-69
2021/01/15 03:59:33;;;;;;;2.65;2.45;;;;;;;-144.78;100.00;59851.00;5038675;28;20570;-69
2021/01/15 04:01:59;;;;;;;1.90;1.33;;;;;;;-144.78;100.00;59851.00;5038851;28;20197;-69
2021/01/15 04:04:26;;;;;;;4.32;1.80;;;;;;;-144.78;100.00;59851.00;5038967;28;20210;-70
2021/01/15 04:06:52;;;;;;;2.17;1.98;;;;;;;-144.78;100.00;59851.00;5038723;28;20638;-70
2021/01/15 04:09:18;;;;;;;3.80;2.20;;;;;;;-144.78;100.00;59851.00;5038714;28;20206;-69
2021/01/15 04:11:44;;;;;;;2.55;1.40;;;;;;;-144.78;100.00;59851.00;5038333;28;20236;-70
2021/01/15 04:14:10;;;;;;;2.20;1.50;;;;;;;-144.78;100.00;59851.00;5027899;28;20231;-70
2021/01/15 04:16:38;;;;;;;2.80;1.92;;;;;;;-144.78;100.00;59851.00;5018962;28;20214;-69
2021/01/15 04:19:04;;;;;;;2.55;2.10;;;;;;;-144.78;100.00;59851.00;5019017;28;20188;-70
2021/01/15 04:21:30;;;;;;;3.60;2.20;;;;;;;-144.78;100.00;59851.00;5019027;28;20222;-70
2021/01/15 04:23:56;;;;;;;2.03;1.73;;;;;;;-144.78;100.00;59851.00;5019151;28;20246;-71
2021/01/15 04:26:23;;;;;;;2.35;2.15;;;;;;;-144.78;100.00;59851.00;5018631;28;20214;-71
2021/01/15 04:28:50;;;;;;;5.05;1.83;;;;;;;-144.78;100.00;59851.00;5033425;28;20228;-69
2021/01/15 04:31:17;;;;;;;4.30;2.35;;;;;;;-144.78;100.00;59851.00;5038276;28;20284;-70
2021/01/15 04:33:44;;;;;;;2.45;1.88;;;;;;;-144.78;100.00;59851.00;5038050;28;20248;-70
2021/01/15 04:36:11;;;;;;;4.93;1.85;;;;;;;-144.78;100.00;59851.00;5035371;28;20194;-68
2021/01/15 04:38:39;;;;;;;2.28;2.08;;;;;;;-144.78;100.00;59851.00;5021296;28;20257;-70
2021/01/15 04:41:05;;;;;;;3.40;2.03;;;;;;;-144.78;100.00;59851.00;5015631;28;20681;-69
2021/01/15 04:43:34;;;;;;;4.28;2.17;;;;;;;-144.78;100.00;59851.00;5016072;28;20315;-69
2021/01/15 04:46:03;;;;;;;2.50;1.95;;;;;;;-144.78;100.00;59851.00;5015066;28;20281;-69
2021/01/15 04:48:31;;;;;;;2.65;2.40;;;;;;;-144.78;100.00;59851.00;5015174;28;20222;-70
2021/01/15 04:51:01;;;;;;;1.83;1.73;;;;;;;-144.78;100.00;59851.00;5015169;28;20256;-71
2021/01/15 04:53:30;;;;;;;4.30;2.45;;;;;;;-144.78;100.00;59851.00;5014961;28;20221;-70
2021/01/15 04:55:58;;;;;;;1.92;1.65;;;;;;;-144.78;100.00;59851.00;5015335;28;20903;-70
2021/01/15 04:58:26;;;;;;;2.85;1.40;;;;;;;-144.78;100.00;59851.00;5014913;28;20218;-70
2021/01/15 05:00:57;;;;;;;3.72;2.35;;;;;;;-144.78;100.00;59851.00;5015135;28;20606;-69
2021/01/15 05:03:24;;;;;;;3.88;3.28;;;;;;;-144.78;100.00;59851.00;5015017;28;20215;-70
2021/01/15 05:05:59;;;;;;;6.20;2.50;;;;;;;-144.78;100.00;59851.00;5014955;28;20643;-70
2021/01/15 05:08:28;;;;;;;3.20;2.00;;;;;;;-144.78;100.00;59851.00;5028790;28;20264;-69
2021/01/15 05:10:55;;;;;;;2.70;2.50;;;;;;;-144.78;100.00;59851.00;5034728;28;20194;-69
2021/01/15 05:13:22;;;;;;;2.80;1.90;;;;;;;-144.78;100.00;59851.00;5034250;28;20239;-69
2021/01/15 05:15:49;;;;;;;1.70;1.60;;;;;;;-144.78;100.00;59851.00;5034890;28;20197;-70
2021/01/15 05:18:18;;;;;;;3.13;1.70;;;;;;;-144.78;100.00;59851.00;5034817;28;20321;-70
2021/01/15 05:20:45;;;;;;;3.10;1.85;;;;;;;-144.78;100.00;59851.00;5034595;28;20675;-70
2021/01/15 05:23:12;;;;;;;2.35;1.73;;;;;;;-144.78;100.00;59851.00;5034762;28;20184;-69
2021/01/15 05:25:44;;;;;;;2.30;2.10;;;;;;;-144.78;100.00;59851.00;5034658;28;20700;-69
2021/01/15 05:28:11;;;;;;;2.22;2.03;;;;;;;-144.78;100.00;59851.00;5033765;28;20314;-69
2021/01/15 05:30:41;;;;;;;2.25;1.30;;;;;;;-144.78;100.00;59851.00;5034293;28;20273;-70
2021/01/15 05:33:11;;;;;;;2.60;2.40;;;;;;;-144.78;100.00;59851.00;5033599;28;20283;-70
2021/01/15 05:35:46;;;;;;;3.15;1.85;;;;;;;-144.78;100.00;59851.00;5034004;28;20194;-68
2021/01/15 05:38:18;;;;;;;3.15;2.22;;;;;;;-144.78;100.00;59851.00;5034395;28;20189;-69
2021/01/15 05:40:46;;;;;;;3.20;2.85;;;;;;;-144.78;100.00;59851.00;5034511;28;20214;-70
2021/01/15 05:43:24;;;;;;;2.90;1.88;;;;;;;-144.78;100.00;59851.00;5033782;28;20201;-69
2021/01/15 05:46:16;;;;;;;3.03;2.17;;;;;;;-144.78;100.00;59851.00;5033597;28;20198;-68
2021/01/15 05:48:45;;;;;;;3.45;1.85;;;;;;;-144.78;100.00;59851.00;5024030;28;20600;-69
2021/01/15 05:51:26;;;;;;;4.05;2.33;;;;;;;-144.78;100.00;59851.00;5034139;28;20187;-70
2021/01/15 05:53:55;;;;;;;2.45;1.70;;;;;;;-144.78;100.00;59851.00;5033770;28;20213;-69
2021/01/15 05:56:23;;;;;;;1.10;1.00;;;;;;;-144.78;100.00;59851.00;5033849;28;20305;-69
2021/01/15 05:59:04;;;;;;;2.35;1.98;;;;;;;-144.78;100.00;59851.00;5031573;28;20690;-70
2021/01/15 06:01:51;;;;;;;6.35;1.73;;;;;;;-144.78;100.00;59851.00;5033575;28;20205;-69
2021/01/15 06:04:19;;;;;;;3.70;2.22;;;;;;;-144.78;100.00;59851.00;5030570;28;20577;-70
2021/01/15 06:06:47;;;;;;;2.33;2.03;;;;;;;-144.78;100.00;59851.00;5033605;28;20636;-70
2021/01/15 06:09:20;;;;;;;3.58;2.28;;;;;;;-144.78;100.00;59851.00;5033115;28;20228;-69
2021/01/15 06:11:48;;;;;;;1.65;1.38;;;;;;;-144.78;100.00;59851.00;5033430;28;20194;-68
2021/01/15 06:14:19;;;;;;;1.80;1.42;;;;;;;-144.78;100.00;59851.00;5032969;28;20210;-70
2021/01/15 06:16:45;;;;;;;2.50;2.13;;;;;;;-144.78;100.00;59851.00;5029004;28;20211;-70
2021/01/15 06:19:11;;;;;;;4.45;2.22;;;;;;;-144.78;100.00;59851.00;5032991;28;20207;-70
2021/01/15 06:21:40;;;;;;;4.72;3.05;;;;;;;-144.78;100.00;59851.00;5032906;28;20654;-69
2021/01/15 06:24:07;;;;;;;2.92;1.85;;;;;;;-144.78;100.00;59851.00;5033081;28;20567;-70
2021/01/15 06:26:36;;;;;;;1.48;1.38;;;;;;;-144.78;100.00;59851.00;5033132;28;20663;-70
2021/01/15 06:29:08;;;;;;;2.55;2.35;;;;;;;-144.78;100.00;59851.00;5032853;28;20266;-70
2021/01/15 06:31:51;;;;;;;2.95;2.30;;;;;;;-144.78;100.00;59851.00;5033032;28;20300;-70
2021/01/15 06:34:19;;;;;;;2.53;1.42;;;;;;;-144.78;100.00;59851.00;5033221;28;20690;-70
2021/01/15 06:36:50;;;;;;;1.98;1.77;;;;;;;-144.78;100.00;59851.00;5033051;28;20703;-70
2021/01/15 06:39:17;;;;;;;5.75;2.67;;;;;;;-144.78;100.00;59851.00;5032911;28;20188;-69
2021/01/15 06:41:45;;;;;;;3.03;2.83;;;;;;;-144.78;100.00;59851.00;5033120;28;20206;-72
2021/01/15 06:44:14;;;;;;;3.50;2.28;;;;;;;-144.78;100.00;59851.00;5032965;28;20289;-70
2021/01/15 06:46:44;;;;;;;1.60;1.50;;;;;;;-144.78;100.00;59851.00;5032814;28;20230;-73
2021/01/15 06:49:16;;;;;;;5.03;2.05;;;;;;;-144.78;100.00;59851.00;5020892;28;20245;-69
2021/01/15 06:52:00;;;;;;;1.42;1.33;;;;;;;-144.78;100.00;59851.00;5030175;28;20667;-69
2021/01/15 06:54:33;;;;;;;2.35;2.15;;;;;;;-144.78;100.00;59851.00;5032315;28;20198;-69
2021/01/15 06:57:12;;;;;;;2.85;2.03;;;;;;;-144.78;100.00;59851.00;5032472;28;20299;-70
2021/01/15 06:59:40;;;;;;;2.50;2.28;;;;;;;-144.78;100.00;59851.00;5032453;28;20225;-70
2021/01/15 07:02:19;;;;;;;1.52;1.40;;;;;;;-144.78;100.00;59851.00;5032415;28;20191;-70
2021/01/15 07:04:58;;;;;;;3.38;2.40;;;;;;;-144.78;100.00;59851.00;5032337;28;20297;-70
2021/01/15 07:07:27;;;;;;;2.40;1.77;;;;;;;-144.78;100.00;59851.00;5032855;28;20656;-70
2021/01/15 07:09:54;;;;;;;1.50;1.40;;;;;;;-144.78;100.00;59851.00;5032433;28;20722;-70
2021/01/15 07:12:22;;;;;;;2.88;1.90;;;;;;;-144.78;100.00;59851.00;5032227;28;20301;-70
2021/01/15 07:14:57;;;;;;;3.00;2.78;;;;;;;-144.78;100.00;59851.00;5032519;28;20588;-68
2021/01/15 07:17:32;;;;;;;2.28;1.90;;;;;;;-144.78;100.00;59851.00;5031904;28;20217;-67
2021/01/15 07:20:17;;;;;;;2.80;2.15;;;;;;;-144.78;100.00;59851.00;5016741;28;20739;-69
2021/01/15 07:22:49;;;;;;;3.67;1.80;;;;;;;-144.78;100.00;59851.00;5023733;28;20224;-70
2021/01/15 07:25:16;;;;;;;4.28;2.22;;;;;;;-144.78;100.00;59851.00;5032484;28;20208;-70
2021/01/15 07:27:43;;;;;;;2.78;1.90;;;;;;;-144.78;100.00;59851.00;5032306;28;20325;-69
2021/01/15 07:30:19;;;;;;;3.65;3.35;;;;;;;-144.78;100.00;59851.00;5032515;28;20682;-71
2021/01/15 07:32:49;;;;;;;2.25;1.65;;;;;;;-144.78;100.00;59851.00;5032262;28;20194;-69
2021/01/15 07:35:18;;;;;;;4.00;2.92;;;;;;;-144.78;100.00;59851.00;5032046;28;20206;-70
2021/01/15 07:37:45;;;;;;;2.40;2.10;;;;;;;-144.78;100.00;59851.00;5026277;28;20203;-70
2021/01/15 07:40:15;;;;;;;3.90;2.38;;;;;;;-144.78;100.00;59851.00;5032095;28;20636;-69
2021/01/15 07:42:45;;;;;;;2.55;2.30;;;;;;;-144.78;100.00;59851.00;5032065;28;20190;-71
2021/01/15 07:45:52;;;;;;;4.32;3.00;;;;;;;-144.78;100.00;59851.00;5031755;28;20202;-70
2021/01/15 07:48:22;;;;;;;5.10;1.65;;;;;;;-144.78;100.00;59851.00;5031336;28;20245;-70
2021/01/15 07:50:51;;;;;;;4.22;2.13;;;;;;;-144.78;100.00;59851.00;5032040;28;20674;-69
2021/01/15 07:53:19;;;;;;;2.15;1.95;;;;;;;-144.78;100.00;59851.00;5032025;28;20216;-69
2021/01/15 07:55:48;;;;;;;2.45;2.25;;;;;;;-144.78;100.00;59851.00;5031669;28;20198;-69
2021/01/15 07:58:17;;;;;;;2.13;1.92;;;;;;;-144.78;100.00;59851.00;5024402;28;20282;-69
2021/01/15 08:00:44;;;;;;;4.35;2.58;;;;;;;-144.78;100.00;59851.00;5012429;28;20652;-68
2021/01/15 08:03:12;;;;;;;2.88;2.08;;;;;;;-144.78;100.00;59851.00;5012586;28;20211;-69
2021/01/15 08:05:38;;;;;;;2.28;2.03;;;;;;;-144.78;100.00;59851.00;5027660;28;20304;-71
2021/01/15 08:08:05;;;;;;;5.32;2.95;;;;;;;-144.78;100.00;59851.00;5031872;28;20217;-71
2021/01/15 08:10:44;;;;;;;3.35;3.08;;;;;;;-144.78;100.00;59851.00;5032098;28;20321;-70
2021/01/15 08:13:27;;;;;;;2.90;2.58;;;;;;;-144.78;100.00;59851.00;5035500;28;20190;-68
2021/01/15 08:15:54;;;;;;;5.95;2.35;;;;;;;-144.78;100.00;59851.00;5033842;28;20248;-69
2021/01/15 08:18:22;;;;;;;4.32;2.35;;;;;;;-144.78;100.00;59851.00;5035446;28;20204;-69
2021/01/15 08:20:50;;;;;;;3.33;2.22;;;;;;;-144.78;100.00;59851.00;5035663;28;20206;-70
2021/01/15 08:23:26;;;;;;;3.22;2.03;;;;;;;-144.78;100.00;59851.00;5035649;28;20621;-69
2021/01/15 08:26:02;;;;;;;3.80;1.67;;;;;;;-144.78;100.00;59851.00;5035781;28;20216;-70
2021/01/15 08:28:33;;;;;;;2.17;1.95;;;;;;;-144.78;100.00;59851.00;5035164;28;20714;-69
2021/01/15 08:31:02;;;;;;;5.47;2.45;;;;;;;-144.78;100.00;59851.00;5035127;28;20206;-71
2021/01/15 08:33:29;;;;;;;4.28;2.28;;;;;;;-144.78;100.00;59851.00;5035376;28;20210;-70
2021/01/15 08:35:57;;;;;;;11.13;2.65;;;;;;;-144.78;100.00;59851.00;5035278;28;20655;-69
2021/01/15 08:38:28;;;;;;;3.30;2.53;;;;;;;-144.78;100.00;59851.00;5034989;28;20291;-69
2021/01/15 08:40:56;;;;;;;6.32;2.00;;;;;;;-144.78;100.00;59851.00;5035094;28;20210;-70
2021/01/15 08:43:24;;;;;;;3.80;2.17;;;;;;;-144.78;100.00;59851.00;5034224;28;20226;-70
2021/01/15 08:45:52;;;;;;;4.13;2.50;;;;;;;-144.78;100.00;59851.00;5030473;28;20333;-68
2021/01/15 08:48:20;;;;;;;8.70;2.20;;;;;;;-144.78;100.00;59851.00;5035145;28;20252;-70
2021/01/15 08:50:47;;;;;;;3.80;2.83;;;;;;;-144.78;100.00;59851.00;5034940;28;21010;-70
2021/01/15 08:53:17;;;;;;;2.65;2.10;;;;;;;-144.78;100.00;59851.00;5034833;28;20193;-68
2021/01/15 08:55:46;;;;;;;4.65;3.30;;;;;;;-144.78;100.00;59851.00;5034943;28;20209;-70
2021/01/15 08:58:13;;;;;;;3.92;2.83;;;;;;;-144.78;100.00;59851.00;5034461;28;20206;-70
2021/01/15 09:00:40;;;;;;;4.50;2.95;;;;;;;-144.78;100.00;59851.00;5034671;28;20205;-71
2021/01/15 09:03:15;;;;;;;8.38;3.58;;;;;;;-144.78;100.00;59851.00;5032726;28;20205;-70
2021/01/15 09:05:46;;;;;;;2.15;1.75;;;;;;;-144.78;100.00;59851.00;5024403;28;20195;-69
2021/01/15 09:08:14;;;;;;;7.38;2.20;;;;;;;-144.78;100.00;59851.00;5034134;28;20196;-70
2021/01/15 09:10:47;;;;;;;4.85;2.90;;;;;;;-144.78;100.00;59851.00;5022627;28;20198;-70
2021/01/15 09:13:14;;;;;;;7.43;3.40;;;;;;;-144.78;100.00;59851.00;5015212;28;20209;-70
2021/01/15 09:15:41;;;;;;;3.05;2.70;;;;;;;-144.78;100.00;59851.00;5027069;28;20236;-69
2021/01/15 09:18:09;;;;;;;2.35;2.15;;;;;;;-144.78;100.00;59851.00;5033170;28;20202;-69
2021/01/15 09:20:36;;;;;;;8.73;3.53;;;;;;;-144.78;100.00;59851.00;5034226;28;20713;-70
2021/01/15 09:23:02;;;;;;;5.55;3.28;;;;;;;-144.78;100.00;59851.00;5033636;28;20206;-70
2021/01/15 09:25:29;;;;;;;3.40;2.20;;;;;;;-144.78;100.00;59851.00;5034781;28;20215;-68
2021/01/15 09:27:55;;;;;;;2.10;2.00;;;;;;;-144.78;100.00;59851.00;5034007;28;20698;-70
2021/01/15 09:30:23;;;;;;;3.60;3.10;;;;;;;-144.78;100.00;59851.00;5033535;28;20582;-71
2021/01/15 09:32:49;;;;;;;3.83;2.35;;;;;;;-144.78;100.00;59851.00;5033392;28;20182;-71
2021/01/15 09:35:17;;;;;;;4.88;2.72;;;;;;;-144.78;100.00;59851.00;5033997;28;20252;-68
2021/01/15 09:37:44;;;;;;;2.63;2.38;;;;;;;-144.78;100.00;59851.00;5034012;28;20205;-70
2021/01/15 09:40:11;;;;;;;4.10;3.22;;;;;;;-144.78;100.00;59851.00;5033906;28;20208;-70
2021/01/15 09:42:38;;;;;;;3.55;3.03;;;;;;;-144.78;100.00;59851.00;5033349;28;20198;-70
2021/01/15 09:45:05;;;;;;;4.03;2.72;;;;;;;-144.78;100.00;59851.00;5033560;28;20244;-70
2021/01/15 09:47:33;;;;;;;2.92;2.60;;;;;;;-144.78;100.00;59851.00;5033959;28;20629;-70
2021/01/15 09:49:59;;;;;;;3.45;2.80;;;;;;;-144.78;100.00;59851.00;5025149;28;20234;-69
2021/01/15 09:52:27;;;;;;;2.97;2.65;;;;;;;-144.78;100.00;59851.00;5013977;28;20222;-72
2021/01/15 09:54:56;;;;;;;4.05;2.28;;;;;;;-144.78;100.00;59851.00;5014081;28;20206;-70
2021/01/15 09:57:23;;;;;;;2.58;2.38;;;;;;;-144.78;100.00;59851.00;5014271;28;20187;-70
2021/01/15 10:00:16;;;;;;;3.72;2.50;;;;;;;-144.78;100.00;59851.00;5015413;28;20195;-71
2021/01/15 10:02:42;;;;;;;3.78;2.30;;;;;;;-144.78;100.00;59851.00;5009129;28;20268;-70
2021/01/15 10:05:09;;;;;;;2.30;2.10;;;;;;;-144.78;100.00;59851.00;5014011;28;20191;-70
2021/01/15 10:07:37;;;;;;;3.55;2.30;;;;;;;-144.78;100.00;59851.00;5032758;28;20644;-68
2021/01/15 10:10:07;;;;;;;2.88;2.58;;;;;;;-144.78;100.00;59851.00;5033432;28;20750;-69
2021/01/15 10:12:33;;;;;;;4.72;2.78;;;;;;;-144.78;100.00;59851.00;5033568;28;20635;-71
2021/01/15 10:14:59;;;;;;;2.28;2.08;;;;;;;-144.78;100.00;59851.00;5033059;28;20629;-68
2021/01/15 10:17:26;;;;;;;4.93;2.63;;;;;;;-144.78;100.00;59851.00;5033170;28;20210;-69
2021/01/15 10:19:52;;;;;;;9.27;3.20;;;;;;;-144.78;100.00;59851.00;5033571;28;20241;-68
2021/01/15 10:22:19;;;;;;;4.72;2.80;;;;;;;-144.78;100.00;59851.00;5033381;28;20252;-70
2021/01/15 10:24:46;;;;;;;6.07;3.05;;;;;;;-144.78;100.00;59851.00;5033596;28;20213;-70
2021/01/15 10:27:13;;;;;;;4.90;2.25;;;;;;;-144.78;100.00;59851.00;5033199;28;20224;-71
2021/01/15 10:29:39;;;;;;;2.83;2.33;;;;;;;-144.78;100.00;59851.00;5032988;28;20248;-70
2021/01/15 10:32:06;;;;;;;5.82;2.92;;;;;;;-144.78;100.00;59851.00;5033516;28;20214;-68
2021/01/15 10:34:33;;;;;;;2.22;2.00;;;;;;;-144.78;100.00;59851.00;5032285;28;20317;-70
2021/01/15 10:36:59;;;;;;;3.88;2.05;;;;;;;-144.78;100.00;59851.00;5021997;28;20252;-71
2021/01/15 10:39:26;;;;;;;3.75;3.05;;;;;;;-144.78;100.00;59851.00;5012943;28;20187;-71
2021/01/15 10:41:53;;;;;;;4.57;3.13;;;;;;;-144.78;100.00;59851.00;5013742;28;20210;-70
2021/01/15 10:44:21;;;;;;;5.05;2.70;;;;;;;-144.78;100.00;59851.00;5012952;28;20272;-70
2021/01/15 10:46:51;;;;;;;8.32;2.95;;;;;;;-144.78;100.00;59851.00;5013022;28;20210;-70
2021/01/15 10:49:19;;;;;;;8.13;3.55;;;;;;;-144.78;100.00;59851.00;5012987;28;20210;-71
2021/01/15 10:51:47;;;;;;;4.57;2.45;;;;;;;-144.78;100.00;59851.00;5025162;28;20201;-70
2021/01/15 10:54:14;;;;;;;3.95;2.85;;;;;;;-144.78;100.00;59851.00;5032538;28;20252;-70
2021/01/15 10:56:42;;;;;;;4.45;2.95;;;;;;;-144.78;100.00;59851.00;5032552;28;20210;-70
2021/01/15 10:59:10;;;;;;;6.38;2.72;;;;;;;-144.78;100.00;59851.00;5032751;28;20240;-69
2021/01/15 11:01:37;;;;;;;3.78;2.83;;;;;;;-144.78;100.00;59851.00;5031412;28;20210;-70
2021/01/15 11:04:06;;;;;;;4.78;3.45;;;;;;;-144.78;100.00;59851.00;5032593;28;20212;-69
2021/01/15 11:06:36;;;;;;;4.63;2.80;;;;;;;-144.78;100.00;59851.00;5032666;28;20216;-70
2021/01/15 11:09:04;;;;;;;4.65;3.08;;;;;;;-144.78;100.00;59851.00;5032534;28;20238;-70
2021/01/15 11:11:31;;;;;;;4.65;3.47;;;;;;;-144.78;100.00;59851.00;5032986;28;20209;-69
2021/01/15 11:13:58;;;;;;;2.67;2.47;;;;;;;-144.78;100.00;59851.00;5032346;28;20325;-69
2021/01/15 11:16:25;;;;;;;4.68;2.40;;;;;;;-144.78;100.00;59851.00;5024217;28;20409;-69
2021/01/15 11:18:52;;;;;;;4.82;2.90;;;;;;;-144.78;100.00;59851.00;5012871;28;20259;-70